Time;durP1;ratioP1;P1;durP2;ratioP2;P2;SDS_P1;SDS_P2;PMS_P1;PMS_P2;Temp;Humidity;BMP_temperature;BMP_pressure;BME280_temperature;BME280_humidity;BME280_pressure;Samples;Min_cycle;Max_cycle;Signal;HPM_P1;HPM_P2
2022/05/08 00:02:20;;;;;;;13.32;12.13;;;12.60;99.90;;;;;;5056916;28;20176;-63
2022/05/08 00:04:50;;;;;;;14.60;13.10;;;12.30;99.90;;;;;;5056789;28;20219;-63
2022/05/08 00:07:17;;;;;;;13.35;12.07;;;12.50;99.90;;;;;;5059882;28;20176;-63
2022/05/08 00:09:43;;;;;;;14.07;12.88;;;12.50;99.90;;;;;;5061057;28;20207;-64
2022/05/08 00:12:12;;;;;;;14.77;13.50;;;12.60;99.90;;;;;;5053437;28;20196;-64
2022/05/08 00:14:39;;;;;;;14.00;12.77;;;12.30;99.90;;;;;;5057859;28;20195;-62
2022/05/08 00:17:05;;;;;;;13.38;12.18;;;12.30;99.90;;;;;;5056060;28;20193;-63
2022/05/08 00:19:31;;;;;;;14.05;12.73;;;12.20;99.90;;;;;;5053707;28;20259;-63
2022/05/08 00:21:57;;;;;;;14.63;13.03;;;12.40;99.90;;;;;;5066132;28;20276;-63
2022/05/08 00:24:22;;;;;;;13.27;11.97;;;12.10;99.90;;;;;;5060718;28;20472;-63
2022/05/08 00:26:48;;;;;;;13.63;12.57;;;12.20;99.90;;;;;;5054185;28;20409;-63
2022/05/08 00:29:15;;;;;;;15.10;13.67;;;12.10;99.90;;;;;;5055395;28;20214;-62
2022/05/08 00:31:41;;;;;;;14.13;12.73;;;12.10;99.90;;;;;;5060262;28;20184;-62
2022/05/08 00:34:08;;;;;;;13.40;12.18;;;12.20;99.90;;;;;;5054184;28;20195;-61
2022/05/08 00:36:34;;;;;;;14.27;12.88;;;12.00;99.90;;;;;;5064433;28;20179;-61
2022/05/08 00:38:59;;;;;;;13.80;11.77;;;11.90;99.90;;;;;;5057378;28;20201;-61
2022/05/08 00:41:25;;;;;;;15.00;13.33;;;11.70;99.90;;;;;;5055485;28;20254;-62
2022/05/08 00:43:51;;;;;;;14.07;12.77;;;11.80;99.90;;;;;;5056389;28;20196;-62
2022/05/08 00:46:17;;;;;;;13.67;12.40;;;12.10;99.90;;;;;;5060276;28;20675;-61
2022/05/08 00:48:43;;;;;;;13.50;12.30;;;12.10;99.90;;;;;;5047334;28;20216;-62
2022/05/08 00:51:11;;;;;;;13.73;12.50;;;11.90;99.90;;;;;;5060146;28;20200;-63
2022/05/08 00:53:48;;;;;;;12.60;11.50;;;11.90;99.90;;;;;;5060912;28;20175;-63
2022/05/08 00:56:15;;;;;;;14.27;12.95;;;11.90;99.90;;;;;;5052566;28;20267;-63
2022/05/08 00:58:42;;;;;;;14.52;13.13;;;11.70;99.90;;;;;;5056234;28;20219;-63
2022/05/08 01:01:09;;;;;;;13.65;12.45;;;11.50;99.90;;;;;;5060079;28;20239;-62
2022/05/08 01:03:35;;;;;;;14.88;13.57;;;11.50;99.90;;;;;;5059182;28;20528;-63
2022/05/08 01:06:08;;;;;;;14.40;13.02;;;11.60;99.90;;;;;;5057409;28;20204;-63
2022/05/08 01:08:36;;;;;;;14.45;13.15;;;11.60;99.90;;;;;;5060616;28;20218;-63
2022/05/08 01:11:03;;;;;;;14.30;13.10;;;11.80;99.90;;;;;;5066886;28;20182;-63
2022/05/08 01:13:29;;;;;;;15.10;13.70;;;11.70;99.90;;;;;;5060513;28;20181;-63
2022/05/08 01:15:56;;;;;;;14.27;12.93;;;11.50;99.90;;;;;;5060307;28;20310;-63
2022/05/08 01:18:22;;;;;;;15.38;13.98;;;11.70;99.90;;;;;;5052301;28;20474;-63
2022/05/08 01:20:48;;;;;;;14.50;13.20;;;11.70;99.90;;;;;;5061391;28;20207;-61
2022/05/08 01:23:15;;;;;;;14.13;12.82;;;11.50;99.90;;;;;;5062087;28;20456;-63
2022/05/08 01:25:51;;;;;;;14.90;13.35;;;11.40;99.90;;;;;;5065078;28;20674;-63
2022/05/08 01:28:17;;;;;;;14.80;13.40;;;11.70;99.90;;;;;;5050456;28;20207;-63
2022/05/08 01:30:44;;;;;;;14.57;12.95;;;11.60;99.90;;;;;;5056267;28;20263;-63
2022/05/08 01:33:11;;;;;;;14.75;13.35;;;11.50;99.90;;;;;;5056643;28;20185;-62
2022/05/08 01:35:38;;;;;;;15.57;13.98;;;11.30;99.90;;;;;;5053118;28;20200;-63
2022/05/08 01:38:05;;;;;;;13.95;12.65;;;11.40;99.90;;;;;;5053741;28;20285;-62
2022/05/08 01:40:31;;;;;;;14.25;12.95;;;11.30;99.90;;;;;;5052849;28;20180;-62
2022/05/08 01:42:57;;;;;;;14.27;12.73;;;11.60;99.90;;;;;;5058213;28;20204;-63
2022/05/08 01:45:24;;;;;;;15.52;14.07;;;11.30;99.90;;;;;;5057828;28;20235;-63
2022/05/08 01:50:36;;;;;;;15.85;14.45;;;11.10;99.90;;;;;;5056783;28;20269;-62
2022/05/08 01:53:02;;;;;;;14.55;13.25;;;11.20;99.90;;;;;;5058016;28;20187;-62
2022/05/08 01:55:28;;;;;;;14.60;13.30;;;11.40;99.90;;;;;;5058514;28;20747;-63
2022/05/08 01:57:53;;;;;;;12.97;11.73;;;11.20;99.90;;;;;;5055833;28;20186;-63
2022/05/08 02:00:20;;;;;;;15.37;13.23;;;11.20;99.90;;;;;;5060949;28;20450;-63
2022/05/08 02:02:48;;;;;;;15.10;13.70;;;11.40;99.90;;;;;;5051076;28;20512;-63
2022/05/08 02:05:21;;;;;;;14.75;13.43;;;11.20;99.90;;;;;;5071656;28;20206;-62
2022/05/08 02:07:48;;;;;;;15.93;14.52;;;11.20;99.90;;;;;;5055937;28;20212;-63
2022/05/08 02:10:15;;;;;;;15.45;14.05;;;11.30;99.90;;;;;;5063546;28;20648;-63
2022/05/08 02:12:41;;;;;;;16.75;15.15;;;11.00;99.90;;;;;;5052727;28;20187;-63
2022/05/08 02:15:12;;;;;;;15.63;14.02;;;11.00;99.90;;;;;;5063806;28;20237;-63
2022/05/08 02:17:38;;;;;;;16.40;14.77;;;11.10;99.90;;;;;;5059338;28;20178;-63
2022/05/08 02:20:07;;;;;;;14.30;13.07;;;11.00;99.90;;;;;;5055124;28;20262;-63
2022/05/08 02:22:36;;;;;;;14.30;13.00;;;11.00;99.90;;;;;;5069078;28;20175;-62
2022/05/08 02:25:03;;;;;;;16.08;14.38;;;11.10;99.90;;;;;;5060763;28;20655;-62
2022/05/08 02:27:40;;;;;;;15.23;13.73;;;11.00;99.90;;;;;;5047521;28;20237;-62
2022/05/08 02:30:10;;;;;;;16.90;15.20;;;11.30;99.90;;;;;;5054456;28;20672;-62
2022/05/08 02:32:37;;;;;;;14.63;13.23;;;11.00;99.90;;;;;;5057875;28;20206;-61
2022/05/08 02:35:04;;;;;;;17.52;14.68;;;11.30;99.90;;;;;;5062504;28;20321;-63
2022/05/08 02:37:30;;;;;;;15.80;14.30;;;11.00;99.90;;;;;;5063871;28;20183;-62
2022/05/08 02:39:56;;;;;;;15.53;14.03;;;11.20;99.90;;;;;;5058868;28;20244;-62
2022/05/08 02:42:21;;;;;;;16.27;14.70;;;11.30;99.90;;;;;;5060065;28;20181;-62
2022/05/08 02:44:47;;;;;;;15.77;14.00;;;11.10;99.90;;;;;;5054402;28;20214;-62
2022/05/08 02:47:13;;;;;;;15.70;14.30;;;11.40;99.90;;;;;;5049446;28;20610;-62
2022/05/08 02:49:38;;;;;;;16.30;14.70;;;11.10;99.90;;;;;;5054767;28;20259;-62
2022/05/08 02:52:04;;;;;;;15.70;14.10;;;11.00;99.90;;;;;;5061813;28;20184;-62
2022/05/08 02:54:30;;;;;;;16.20;14.50;;;11.10;99.90;;;;;;5056335;28;20251;-61
2022/05/08 02:59:40;;;;;;;15.82;14.40;;;11.30;99.90;;;;;;5057438;28;20189;-62
2022/05/08 03:02:07;;;;;;;16.10;14.60;;;11.20;99.90;;;;;;5051341;28;20186;-62
2022/05/08 03:04:32;;;;;;;15.20;13.90;;;11.20;99.90;;;;;;5056644;28;20210;-62
2022/05/08 03:06:58;;;;;;;15.40;13.80;;;11.00;99.90;;;;;;5060884;28;20190;-61
2022/05/08 03:09:24;;;;;;;15.57;14.07;;;11.10;99.90;;;;;;5056019;28;20210;-63
2022/05/08 03:11:49;;;;;;;15.13;13.60;;;10.80;99.90;;;;;;5058913;28;20184;-61
2022/05/08 03:14:15;;;;;;;15.63;14.27;;;11.00;99.90;;;;;;5053741;28;20203;-62
2022/05/08 03:16:41;;;;;;;15.63;14.17;;;11.10;99.90;;;;;;5055252;28;20205;-63
2022/05/08 03:19:07;;;;;;;15.57;14.15;;;11.10;99.90;;;;;;5050756;28;20198;-62
2022/05/08 03:21:34;;;;;;;17.03;15.33;;;11.00;99.90;;;;;;5057714;28;20179;-62
2022/05/08 03:24:00;;;;;;;16.00;14.50;;;11.10;99.90;;;;;;5047108;28;20230;-63
2022/05/08 03:26:28;;;;;;;14.00;12.70;;;10.90;99.90;;;;;;5053529;28;20265;-62
2022/05/08 03:28:53;;;;;;;15.32;13.85;;;10.80;99.90;;;;;;5055583;28;20692;-62
2022/05/08 03:31:20;;;;;;;16.90;15.23;;;10.80;99.90;;;;;;5067694;28;20191;-63
2022/05/08 03:33:46;;;;;;;15.95;14.32;;;10.80;99.90;;;;;;5057582;28;20244;-62
2022/05/08 03:36:11;;;;;;;16.10;14.50;;;10.60;99.90;;;;;;5055140;28;20687;-63
2022/05/08 03:38:42;;;;;;;16.60;14.97;;;10.80;99.90;;;;;;5067976;28;20278;-63
2022/05/08 03:41:08;;;;;;;17.33;15.73;;;10.80;99.90;;;;;;5054481;28;20230;-62
2022/05/08 03:43:35;;;;;;;17.35;15.63;;;10.90;99.90;;;;;;5058647;28;20191;-61
2022/05/08 03:46:01;;;;;;;15.70;14.30;;;10.90;99.90;;;;;;5061736;28;20576;-63
2022/05/08 03:48:27;;;;;;;16.67;14.88;;;11.00;99.90;;;;;;5055661;28;20624;-63
2022/05/08 03:50:53;;;;;;;16.30;14.63;;;11.00;99.90;;;;;;5059552;28;20271;-63
2022/05/08 03:53:18;;;;;;;16.47;14.97;;;10.50;99.90;;;;;;5057321;28;20201;-63
2022/05/08 03:55:44;;;;;;;17.23;15.50;;;10.60;99.90;;;;;;5055802;28;20203;-63
2022/05/08 03:58:10;;;;;;;16.57;14.97;;;10.60;99.90;;;;;;5056372;28;20653;-62
2022/05/08 04:00:35;;;;;;;17.53;15.93;;;10.60;99.90;;;;;;5051877;28;20691;-62
2022/05/08 04:03:01;;;;;;;16.47;14.87;;;10.70;99.90;;;;;;5057536;28;20198;-62
2022/05/08 04:05:27;;;;;;;16.60;14.93;;;10.80;99.90;;;;;;5051845;28;20316;-62
2022/05/08 04:07:53;;;;;;;17.67;16.08;;;10.40;99.90;;;;;;5051173;28;20233;-62
2022/05/08 04:10:19;;;;;;;16.93;15.13;;;10.60;99.90;;;;;;5056286;28;20213;-61
2022/05/08 04:12:46;;;;;;;17.55;15.70;;;10.50;99.90;;;;;;5046201;28;20268;-61
2022/05/08 04:17:56;;;;;;;18.55;16.73;;;10.30;99.90;;;;;;5057456;28;20275;-61
2022/05/08 04:20:21;;;;;;;17.50;15.80;;;10.30;99.90;;;;;;5056538;28;20213;-61
2022/05/08 04:25:31;;;;;;;15.70;14.25;;;10.90;99.90;;;;;;5050838;28;20237;-61
2022/05/08 04:27:57;;;;;;;17.07;15.47;;;10.80;99.90;;;;;;5050749;28;20297;-62
2022/05/08 04:30:23;;;;;;;16.27;14.67;;;10.70;99.90;;;;;;5055110;28;20182;-62
2022/05/08 04:32:48;;;;;;;16.20;14.47;;;10.50;99.90;;;;;;5048174;28;20186;-60
2022/05/08 04:35:14;;;;;;;17.10;15.50;;;10.50;99.90;;;;;;5056321;28;20209;-61
2022/05/08 04:37:40;;;;;;;16.50;14.90;;;10.50;99.90;;;;;;5057968;28;20178;-60
2022/05/08 04:40:06;;;;;;;16.57;14.97;;;10.60;99.90;;;;;;5060700;28;20194;-59
2022/05/08 04:42:32;;;;;;;17.20;15.60;;;10.80;99.90;;;;;;5049650;28;20259;-60
2022/05/08 04:44:59;;;;;;;17.57;15.27;;;10.60;99.90;;;;;;5045155;28;20309;-60
2022/05/08 04:47:25;;;;;;;16.90;15.20;;;10.70;99.90;;;;;;5046903;28;20175;-59
2022/05/08 04:49:51;;;;;;;17.98;16.08;;;10.90;99.90;;;;;;5049984;28;20288;-54
2022/05/08 04:52:17;;;;;;;16.03;14.53;;;11.00;99.90;;;;;;5046545;28;20191;-55
2022/05/08 04:54:43;;;;;;;16.73;14.98;;;10.80;99.90;;;;;;5045285;28;20199;-55
2022/05/08 04:57:08;;;;;;;16.37;14.87;;;11.20;99.90;;;;;;5048871;28;20194;-56
2022/05/08 04:59:34;;;;;;;13.63;12.27;;;11.90;99.90;;;;;;5057908;28;20266;-55
2022/05/08 05:02:00;;;;;;;14.93;13.60;;;12.50;99.90;;;;;;5058761;28;20196;-56
2022/05/08 05:04:25;;;;;;;13.40;12.07;;;12.80;99.90;;;;;;5055679;28;20201;-56
2022/05/08 05:06:51;;;;;;;13.10;12.00;;;13.30;99.90;;;;;;5055430;28;20204;-56
2022/05/08 05:09:17;;;;;;;13.80;12.53;;;13.60;99.90;;;;;;5053750;28;20200;-56
2022/05/08 05:11:42;;;;;;;9.90;9.10;;;14.60;99.90;;;;;;5053009;28;20251;-56
2022/05/08 05:14:08;;;;;;;8.93;8.03;;;14.80;99.90;;;;;;5058546;28;20584;-56
2022/05/08 05:16:34;;;;;;;10.48;9.68;;;15.50;99.90;;;;;;5055181;28;20192;-56
2022/05/08 05:19:00;;;;;;;13.43;12.33;;;15.70;99.90;;;;;;5045607;28;20277;-56
2022/05/08 05:21:25;;;;;;;11.67;10.67;;;16.10;99.90;;;;;;5053881;28;20193;-57
2022/05/08 05:23:51;;;;;;;10.83;10.03;;;16.30;99.60;;;;;;5055780;28;20615;-56
2022/05/08 05:26:17;;;;;;;11.37;10.47;;;16.40;99.20;;;;;;5048661;28;20193;-56
2022/05/08 05:28:44;;;;;;;9.77;8.77;;;16.10;98.30;;;;;;5051630;28;20217;-55
2022/05/08 05:31:12;;;;;;;10.38;9.55;;;15.90;99.70;;;;;;5050579;28;20534;-56
2022/05/08 05:33:38;;;;;;;12.40;11.30;;;16.60;99.90;;;;;;5057101;28;20551;-57
2022/05/08 05:36:04;;;;;;;8.88;8.18;;;16.50;97.80;;;;;;5050012;28;20209;-56
2022/05/08 05:38:29;;;;;;;6.23;5.77;;;16.50;98.60;;;;;;5053272;28;20197;-57
2022/05/08 05:40:55;;;;;;;12.80;11.70;;;16.60;98.50;;;;;;5053070;28;20475;-56
2022/05/08 05:43:21;;;;;;;10.83;9.93;;;16.50;97.70;;;;;;5055668;28;20704;-56
2022/05/08 05:47:49;;;;;;;11.13;10.23;;;16.80;98.40;;;;;;5051475;28;20209;-56
2022/05/08 05:48:35;;;;;;;13.05;11.95;;;15.60;97.90;;;;;;5047938;28;20215;-56
2022/05/08 05:51:01;;;;;;;12.75;11.52;;;16.50;97.90;;;;;;5052126;28;20685;-56
2022/05/08 05:53:26;;;;;;;13.67;12.57;;;15.60;98.40;;;;;;5065613;28;20208;-56
2022/05/08 05:55:54;;;;;;;11.50;10.40;;;15.60;99.10;;;;;;5051252;28;20213;-56
2022/05/08 05:58:19;;;;;;;11.07;10.18;;;16.20;99.40;;;;;;5051510;28;20182;-56
2022/05/08 06:00:45;;;;;;;11.93;10.73;;;16.30;98.50;;;;;;5051666;28;20177;-57
2022/05/08 06:03:10;;;;;;;14.47;13.27;;;16.90;98.60;;;;;;5052427;28;20729;-56
2022/05/08 06:05:36;;;;;;;14.27;12.97;;;16.10;97.20;;;;;;5046465;28;20197;-56
2022/05/08 06:08:02;;;;;;;7.03;6.17;;;15.60;98.70;;;;;;5050502;28;20209;-56
2022/05/08 06:10:28;;;;;;;11.10;10.10;;;16.20;99.90;;;;;;5048024;28;20231;-55
2022/05/08 06:12:53;;;;;;;9.30;8.47;;;16.90;99.50;;;;;;5043000;28;20441;-56
2022/05/08 06:15:19;;;;;;;12.93;11.67;;;17.50;97.80;;;;;;5050959;28;20201;-56
2022/05/08 06:17:45;;;;;;;5.37;4.97;;;17.60;97.40;;;;;;5047139;28;20184;-57
2022/05/08 06:20:11;;;;;;;12.63;11.63;;;18.10;97.20;;;;;;5047758;28;20173;-55
2022/05/08 06:22:37;;;;;;;10.80;9.80;;;18.30;95.70;;;;;;5050762;28;20768;-56
2022/05/08 06:25:04;;;;;;;12.30;11.20;;;18.60;95.30;;;;;;5048755;28;20739;-56
2022/05/08 06:27:29;;;;;;;8.75;8.05;;;18.80;94.80;;;;;;5050948;28;20215;-57
2022/05/08 06:29:55;;;;;;;6.67;6.17;;;18.80;94.90;;;;;;5050551;28;20306;-57
2022/05/08 06:32:21;;;;;;;13.63;12.50;;;18.60;94.70;;;;;;5050588;28;20185;-57
2022/05/08 06:34:47;;;;;;;11.90;10.90;;;18.40;93.80;;;;;;5049593;28;20204;-57
2022/05/08 06:37:13;;;;;;;10.38;9.55;;;18.50;94.80;;;;;;5049409;28;20251;-57
2022/05/08 06:39:39;;;;;;;6.37;5.87;;;18.70;94.00;;;;;;5049530;28;20189;-57
2022/05/08 06:42:06;;;;;;;13.67;12.47;;;18.90;94.20;;;;;;5050647;28;20452;-57
2022/05/08 06:44:31;;;;;;;13.25;12.10;;;19.10;94.20;;;;;;5049142;28;20619;-57
2022/05/08 06:46:58;;;;;;;5.30;4.80;;;19.20;92.90;;;;;;5046688;28;20193;-55
2022/05/08 06:49:24;;;;;;;16.05;14.55;;;19.90;93.20;;;;;;5051128;28;20267;-56
2022/05/08 06:51:50;;;;;;;13.73;12.60;;;19.60;91.50;;;;;;5048025;28;20307;-56
2022/05/08 06:54:15;;;;;;;16.00;14.60;;;19.20;92.00;;;;;;5055223;28;20211;-56
2022/05/08 06:56:41;;;;;;;13.60;12.50;;;19.10;91.70;;;;;;5058833;28;20214;-56
2022/05/08 07:01:53;;;;;;;13.32;12.30;;;18.60;93.20;;;;;;5050849;28;20196;-57
2022/05/08 07:04:19;;;;;;;12.63;11.60;;;19.10;92.90;;;;;;5044673;28;20205;-56
2022/05/08 07:06:44;;;;;;;12.17;11.07;;;19.40;92.90;;;;;;5048057;28;20671;-56
2022/05/08 07:09:10;;;;;;;14.40;13.10;;;19.70;92.60;;;;;;5058608;28;20579;-57
2022/05/08 07:11:37;;;;;;;14.97;13.10;;;19.90;91.90;;;;;;5049687;28;20284;-56
2022/05/08 07:14:03;;;;;;;8.23;7.63;;;19.90;91.40;;;;;;5053243;28;20723;-56
2022/05/08 07:16:28;;;;;;;13.80;12.65;;;20.60;91.50;;;;;;5048711;28;20234;-56
2022/05/08 07:18:54;;;;;;;13.30;12.17;;;21.20;90.00;;;;;;5046774;28;20197;-56
2022/05/08 07:21:20;;;;;;;13.00;11.90;;;21.20;88.80;;;;;;5050998;28;20187;-55
2022/05/08 07:23:47;;;;;;;14.00;12.80;;;21.30;89.40;;;;;;5047257;28;20730;-55
2022/05/08 07:26:14;;;;;;;14.25;13.10;;;20.80;89.30;;;;;;5047920;28;20241;-56
2022/05/08 07:28:40;;;;;;;18.00;16.60;;;21.10;88.90;;;;;;5045496;28;20781;-55
2022/05/08 07:31:05;;;;;;;11.85;10.75;;;20.50;90.00;;;;;;5047918;28;20197;-55
2022/05/08 07:33:34;;;;;;;12.03;10.93;;;20.40;90.60;;;;;;5049628;28;20612;-56
2022/05/08 07:36:13;;;;;;;16.42;15.00;;;20.40;90.30;;;;;;5052427;28;20205;-55
2022/05/08 07:38:46;;;;;;;16.42;15.13;;;20.20;90.60;;;;;;5046973;28;20657;-58
2022/05/08 07:41:17;;;;;;;16.90;15.40;;;20.40;90.40;;;;;;5050314;28;20188;-62
2022/05/08 07:43:47;;;;;;;16.85;15.35;;;20.60;90.10;;;;;;5050734;28;20470;-61
2022/05/08 07:46:15;;;;;;;17.17;15.80;;;20.80;90.00;;;;;;5044904;28;20514;-62
2022/05/08 07:48:41;;;;;;;17.05;15.65;;;20.60;89.40;;;;;;5049612;28;20204;-63
2022/05/08 07:51:07;;;;;;;16.60;15.20;;;20.10;89.40;;;;;;5054126;28;20443;-59
2022/05/08 07:53:33;;;;;;;17.23;15.82;;;20.20;90.50;;;;;;5061425;28;20420;-58
2022/05/08 07:55:59;;;;;;;17.02;15.73;;;20.30;90.20;;;;;;5045561;28;20216;-60
2022/05/08 07:58:28;;;;;;;16.88;15.38;;;19.70;91.20;;;;;;5045028;28;20181;-61
2022/05/08 08:00:56;;;;;;;16.65;15.25;;;20.30;90.60;;;;;;5043126;28;20200;-59
2022/05/08 08:03:24;;;;;;;17.33;15.75;;;20.60;90.20;;;;;;5044850;28;20189;-62
2022/05/08 08:05:50;;;;;;;16.02;14.63;;;20.90;89.00;;;;;;5044167;28;20197;-68
2022/05/08 08:08:17;;;;;;;16.35;14.85;;;21.20;88.60;;;;;;5042840;28;20596;-64
2022/05/08 08:10:44;;;;;;;16.27;14.88;;;21.10;88.90;;;;;;5044732;28;20516;-64
2022/05/08 08:13:09;;;;;;;16.45;15.15;;;21.30;87.80;;;;;;5048347;28;20179;-66
2022/05/08 08:15:36;;;;;;;16.53;15.03;;;21.50;86.90;;;;;;5048748;28;20201;-65
2022/05/08 08:18:03;;;;;;;15.45;14.18;;;21.40;87.10;;;;;;5046160;28;20451;-67
2022/05/08 08:20:28;;;;;;;15.00;13.73;;;21.40;87.10;;;;;;5046061;28;20269;-66
2022/05/08 08:22:54;;;;;;;16.30;14.83;;;21.50;88.50;;;;;;5048634;28;20189;-64
2022/05/08 08:25:20;;;;;;;13.83;12.73;;;21.90;86.40;;;;;;5051825;28;20201;-64
2022/05/08 08:27:46;;;;;;;15.37;14.07;;;22.60;85.40;;;;;;5049270;28;20181;-60
2022/05/08 08:30:13;;;;;;;16.40;14.83;;;22.60;83.90;;;;;;5052429;28;20546;-61
2022/05/08 08:32:38;;;;;;;13.20;12.10;;;23.10;82.30;;;;;;5053912;28;20850;-61
2022/05/08 08:35:05;;;;;;;13.90;12.77;;;24.00;80.10;;;;;;5048676;28;20463;-61
2022/05/08 08:37:31;;;;;;;18.50;16.63;;;24.50;76.50;;;;;;5045021;28;20186;-61
2022/05/08 08:39:56;;;;;;;13.60;12.60;;;25.00;75.80;;;;;;5047212;28;20449;-61
2022/05/08 08:42:31;;;;;;;14.40;13.20;;;25.10;74.60;;;;;;5049350;28;20190;-61
2022/05/08 08:47:52;;;;;;;12.87;11.87;;;25.90;72.30;;;;;;5046800;28;20479;-62
2022/05/08 08:50:19;;;;;;;13.07;12.07;;;25.90;69.60;;;;;;5045720;28;20435;-61
2022/05/08 08:52:48;;;;;;;11.33;10.37;;;26.30;69.00;;;;;;5048530;28;20449;-62
2022/05/08 08:55:16;;;;;;;12.40;11.40;;;27.70;66.00;;;;;;5050533;28;20833;-63
2022/05/08 08:57:44;;;;;;;11.90;11.00;;;28.60;61.20;;;;;;5049625;28;20433;-64
2022/05/08 09:00:11;;;;;;;12.30;11.40;;;29.40;59.10;;;;;;5058834;28;20529;-65
2022/05/08 09:02:37;;;;;;;12.70;11.70;;;29.00;59.10;;;;;;5040839;28;20534;-62
2022/05/08 09:05:06;;;;;;;12.33;11.43;;;29.20;57.50;;;;;;5048518;28;20460;-63
2022/05/08 09:07:34;;;;;;;12.57;11.50;;;29.40;57.40;;;;;;5054866;28;20464;-63
2022/05/08 09:10:08;;;;;;;12.60;11.73;;;28.50;57.80;;;;;;5047838;28;20970;-64
2022/05/08 09:12:34;;;;;;;11.73;10.73;;;28.00;57.80;;;;;;5053072;28;20460;-63
2022/05/08 09:15:15;;;;;;;12.60;11.50;;;28.20;58.60;;;;;;5049186;28;20454;-64
2022/05/08 09:17:45;;;;;;;11.10;10.30;;;27.80;57.80;;;;;;5048807;28;20528;-63
2022/05/08 09:20:29;;;;;;;10.97;10.17;;;27.70;59.10;;;;;;5048425;28;20437;-65
2022/05/08 09:23:19;;;;;;;12.10;11.10;;;27.50;58.90;;;;;;5052863;28;21163;-69
2022/05/08 09:26:08;;;;;;;12.80;11.70;;;27.10;60.00;;;;;;5049485;28;20448;-71
2022/05/08 09:28:36;;;;;;;11.30;10.47;;;26.60;61.50;;;;;;5055215;28;20463;-67
2022/05/08 09:31:16;;;;;;;13.13;12.13;;;26.70;62.10;;;;;;5048353;28;20468;-67
2022/05/08 09:33:51;;;;;;;12.50;11.50;;;27.10;61.10;;;;;;5049548;28;20439;-65
2022/05/08 09:36:27;;;;;;;11.80;10.87;;;27.20;59.40;;;;;;5047846;28;20451;-63
2022/05/08 09:38:57;;;;;;;13.40;12.30;;;26.10;62.40;;;;;;5051099;28;20987;-62
2022/05/08 09:41:39;;;;;;;12.40;11.40;;;25.20;64.60;;;;;;5050519;28;21431;-62
2022/05/08 09:44:13;;;;;;;12.30;11.30;;;25.70;65.10;;;;;;5051802;28;21001;-60
2022/05/08 09:46:40;;;;;;;11.90;10.97;;;25.60;64.10;;;;;;5047005;28;20442;-60
2022/05/08 09:49:06;;;;;;;11.27;10.37;;;25.30;66.00;;;;;;5048856;28;20474;-60
2022/05/08 09:51:33;;;;;;;12.37;11.27;;;25.60;65.60;;;;;;5044016;28;20443;-61
2022/05/08 09:53:59;;;;;;;12.27;11.20;;;25.70;64.50;;;;;;5049922;28;20460;-60
2022/05/08 09:56:25;;;;;;;11.63;10.63;;;25.40;64.60;;;;;;5059409;28;20430;-59
2022/05/08 09:58:51;;;;;;;10.90;9.83;;;25.30;66.30;;;;;;5045034;28;20451;-60
2022/05/08 10:01:17;;;;;;;11.27;10.43;;;25.50;64.00;;;;;;5049713;28;20447;-60
2022/05/08 10:03:47;;;;;;;12.27;11.20;;;25.80;64.10;;;;;;5050972;28;20589;-59
2022/05/08 10:06:14;;;;;;;11.87;10.97;;;25.80;63.20;;;;;;5048602;28;20231;-61
2022/05/08 10:08:42;;;;;;;12.30;11.30;;;25.30;65.50;;;;;;5063997;28;20521;-60
2022/05/08 10:13:57;;;;;;;10.30;9.27;;;24.70;67.40;;;;;;5047825;28;20440;-58
2022/05/08 10:17:04;;;;;;;9.70;9.00;;;25.20;66.70;;;;;;5046797;28;20494;-59
2022/05/08 10:19:30;;;;;;;10.47;9.57;;;25.20;66.00;;;;;;5051244;28;20448;-59
2022/05/08 10:21:55;;;;;;;10.97;10.10;;;24.80;66.50;;;;;;5053271;28;20451;-59
2022/05/08 10:24:28;;;;;;;11.73;10.80;;;24.70;67.60;;;;;;5049040;28;20596;-59
2022/05/08 10:27:19;;;;;;;11.57;10.57;;;24.20;69.40;;;;;;5058312;28;20203;-60
2022/05/08 10:29:48;;;;;;;11.93;11.03;;;24.40;68.70;;;;;;5047402;28;20547;-60
2022/05/08 10:32:34;;;;;;;10.67;9.90;;;24.40;68.90;;;;;;5043708;28;20444;-60
2022/05/08 10:35:17;;;;;;;12.03;11.00;;;24.70;69.10;;;;;;5050968;28;21146;-60
2022/05/08 10:37:47;;;;;;;11.97;10.87;;;24.10;69.60;;;;;;5059080;28;20420;-60
2022/05/08 10:40:30;;;;;;;10.97;10.13;;;24.40;70.50;;;;;;5049804;28;20448;-60
2022/05/08 10:43:14;;;;;;;10.10;9.30;;;24.70;69.20;;;;;;5050637;28;20474;-59
2022/05/08 10:45:42;;;;;;;11.10;10.30;;;24.80;68.20;;;;;;5045988;28;20529;-59
2022/05/08 10:48:26;;;;;;;11.13;10.30;;;24.50;68.60;;;;;;5047264;28;20555;-59
2022/05/08 10:50:54;;;;;;;10.20;9.40;;;24.50;69.20;;;;;;5042071;28;20449;-59
2022/05/08 10:53:32;;;;;;;7.13;6.53;;;24.80;68.90;;;;;;5064280;28;20779;-60
2022/05/08 10:56:05;;;;;;;7.20;6.70;;;24.50;61.20;;;;;;5064933;28;20531;-59
2022/05/08 10:58:32;;;;;;;8.80;6.37;;;24.00;61.10;;;;;;5052135;28;20781;-59
2022/05/08 11:00:59;;;;;;;6.30;5.77;;;23.80;61.50;;;;;;5049339;28;20996;-60
2022/05/08 11:03:25;;;;;;;6.40;5.90;;;24.40;61.70;;;;;;5055158;28;20443;-59
2022/05/08 11:05:52;;;;;;;6.23;5.83;;;24.60;60.80;;;;;;5056832;28;21211;-58
2022/05/08 11:08:29;;;;;;;5.60;5.20;;;24.70;60.00;;;;;;5053994;28;21032;-59
2022/05/08 11:11:09;;;;;;;6.40;5.80;;;25.80;59.10;;;;;;5062283;28;20443;-60
2022/05/08 11:13:44;;;;;;;6.10;5.70;;;26.10;57.60;;;;;;5060753;28;20510;-60
2022/05/08 11:16:11;;;;;;;6.20;5.70;;;25.90;57.10;;;;;;5051360;28;20449;-58
2022/05/08 11:18:37;;;;;;;6.60;6.03;;;25.70;57.40;;;;;;5057991;28;20438;-59
2022/05/08 11:21:08;;;;;;;5.97;5.40;;;25.70;57.40;;;;;;5052727;28;20811;-60
2022/05/08 11:23:36;;;;;;;6.37;5.97;;;26.00;56.90;;;;;;5054339;28;20436;-59
2022/05/08 11:26:08;;;;;;;6.63;6.20;;;26.00;56.00;;;;;;5050713;28;20502;-59
2022/05/08 11:28:37;;;;;;;6.13;5.73;;;25.80;56.90;;;;;;5049690;28;20550;-59
2022/05/08 11:31:14;;;;;;;6.37;5.87;;;25.90;57.10;;;;;;5048265;28;20451;-59
2022/05/08 11:36:32;;;;;;;6.10;5.60;;;26.20;56.00;;;;;;5050609;28;20935;-58
2022/05/08 11:39:18;;;;;;;6.40;5.90;;;26.00;55.60;;;;;;5055465;28;20971;-58
2022/05/08 11:41:49;;;;;;;5.40;5.00;;;25.80;56.50;;;;;;5048369;28;20448;-59
2022/05/08 11:44:14;;;;;;;5.73;5.33;;;25.50;56.50;;;;;;5049115;28;20964;-59
2022/05/08 11:46:47;;;;;;;6.97;6.47;;;25.50;56.10;;;;;;5053144;28;20534;-58
2022/05/08 11:49:19;;;;;;;6.93;6.30;;;25.00;57.80;;;;;;5049548;28;20646;-59
2022/05/08 11:51:50;;;;;;;6.53;5.93;;;24.80;58.10;;;;;;5053266;28;20516;-60
2022/05/08 11:54:18;;;;;;;6.03;5.50;;;24.90;59.50;;;;;;5056104;28;20456;-59
2022/05/08 11:56:45;;;;;;;7.37;6.23;;;24.30;58.40;;;;;;5058372;28;20799;-59
2022/05/08 11:59:22;;;;;;;6.60;6.00;;;23.80;59.10;;;;;;5051160;28;20542;-59
2022/05/08 12:01:53;;;;;;;6.40;5.87;;;23.90;59.80;;;;;;5056040;28;20440;-61
2022/05/08 12:04:28;;;;;;;6.00;5.60;;;23.60;59.90;;;;;;5059843;28;20797;-60
2022/05/08 12:07:03;;;;;;;6.00;5.60;;;23.50;61.10;;;;;;5046851;28;20438;-60
2022/05/08 12:09:48;;;;;;;5.93;5.43;;;23.60;61.70;;;;;;5042462;28;20466;-58
2022/05/08 12:12:23;;;;;;;7.93;7.33;;;23.90;61.70;;;;;;5041586;28;20712;-59
2022/05/08 12:14:50;;;;;;;6.47;5.90;;;24.00;61.40;;;;;;5043989;28;20459;-59
2022/05/08 12:17:16;;;;;;;6.90;6.40;;;23.90;60.90;;;;;;5047224;28;20594;-59
2022/05/08 12:19:53;;;;;;;6.90;6.40;;;23.90;61.30;;;;;;5050431;28;20439;-59
2022/05/08 12:22:46;;;;;;;6.30;5.80;;;23.80;61.80;;;;;;5046204;28;20932;-59
2022/05/08 12:25:12;;;;;;;6.60;6.10;;;24.00;61.00;;;;;;5048370;28;20484;-59
2022/05/08 12:27:39;;;;;;;6.33;5.83;;;23.60;62.20;;;;;;5047893;28;20944;-59
2022/05/08 12:30:07;;;;;;;6.30;5.90;;;23.50;63.00;;;;;;5052224;28;21033;-60
2022/05/08 12:32:36;;;;;;;6.97;6.47;;;23.70;63.00;;;;;;5051278;28;20447;-59
2022/05/08 12:35:03;;;;;;;6.57;5.63;;;23.50;63.20;;;;;;5046452;28;20460;-59
2022/05/08 12:37:29;;;;;;;6.20;5.70;;;23.40;62.20;;;;;;5048861;28;20432;-59
2022/05/08 12:39:54;;;;;;;6.10;5.70;;;23.50;62.60;;;;;;5047859;28;20493;-59
2022/05/08 12:42:20;;;;;;;6.43;5.93;;;23.40;65.00;;;;;;5051269;28;20184;-59
2022/05/08 12:44:46;;;;;;;6.30;5.60;;;23.60;63.80;;;;;;5053783;28;20237;-59
2022/05/08 12:47:13;;;;;;;6.83;6.23;;;23.60;63.40;;;;;;5050245;28;20188;-59
2022/05/08 12:49:41;;;;;;;7.67;6.93;;;23.70;63.10;;;;;;5038419;28;20778;-58
2022/05/08 12:52:08;;;;;;;7.17;6.57;;;23.80;63.00;;;;;;5047929;28;21019;-59
2022/05/08 12:54:34;;;;;;;9.03;6.30;;;23.70;63.10;;;;;;5047110;28;20987;-59
2022/05/08 12:57:02;;;;;;;5.97;5.47;;;23.50;62.40;;;;;;5050521;28;20519;-60
2022/05/08 12:59:47;;;;;;;5.50;5.10;;;23.30;61.70;;;;;;5054577;28;21034;-59